Flight Track Log - Related Links

Times and Time Zones

All times are in EDT time to prevent confusion due to time zone crossing. See the SWA157 flight status page for this flight to view local times or setup timezone preferences in your user account.

Time Position Orientation Groundspeed Altitude Reporting Facility
EDT Latitude Longitude Course Direction KTS MPH feet Rate Location/Type
Tue 04:07:11 PM 37.7667 -122.3000 310° West 206 237 3,900  Level Northern Cal TRACON
Tue 04:08:11 PM 37.7667 -122.3667 270° West 254 292 7,100 3,283 Climbing Northern Cal TRACON
Tue 04:08:57 PM 37.7256 -122.4261 229° Southwest 263 303 9,700 1,850 Climbing Oakland Center
Tue 04:09:58 PM 37.6514 -122.4594 200° South 296 341 10,400 1,869 Climbing Oakland Center
Tue 04:10:59 PM 37.5661 -122.4344 167° South 333 383 13,500 3,171 Climbing Oakland Center
Tue 04:12:01 PM 37.4742 -122.3881 158° South 362 417 16,900 3,171 Climbing Oakland Center
Tue 04:13:02 PM 37.3975 -122.2908 135° Southeast 393 452 20,000 2,780 Climbing Oakland Center
Tue 04:14:04 PM 37.3194 -122.1839 133° Southeast 415 478 22,600 2,488 Climbing Oakland Center
Tue 04:15:05 PM 37.2361 -122.0700 133° Southeast 442 509 25,100 2,459 Climbing Oakland Center
Tue 04:16:06 PM 37.1494 -121.9522 133° Southeast 460 529 27,600 2,293 Climbing Oakland Center
Tue 04:17:08 PM 37.0608 -121.8333 133° Southeast 468 539 29,800 1,951 Climbing Oakland Center
Tue 04:18:09 PM 36.9506 -121.6903 134° Southeast 477 549 31,600 1,426 Climbing Oakland Center
Tue 04:19:10 PM 36.8544 -121.5614 133° Southeast 500 575 32,700 1,366 Climbing Oakland Center
Tue 04:20:12 PM 36.7608 -121.4361 133° Southeast 512 589 34,400 1,561 Climbing Oakland Center
Tue 04:21:13 PM 36.6633 -121.3036 133° Southeast 516 594 35,900 1,279 Climbing Oakland Center
Tue 04:22:14 PM 36.5658 -121.1747 133° Southeast 514 592 37,000 537 Climbing Oakland Center
Tue 04:23:16 PM 36.4683 -121.0467 133° Southeast 512 589 37,000 -49 Level Oakland Center
Tue 04:24:17 PM 36.3719 -120.9181 133° Southeast 511 588 36,900  Descending Oakland Center
Tue 04:25:18 PM 36.2550 -120.7667 134° Southeast 506 582 37,000 49 Climbing Oakland Center
Tue 04:26:20 PM 36.1586 -120.6400 133° Southeast 506 582 37,000  Level Oakland Center
Tue 04:27:21 PM 36.0619 -120.5125 133° Southeast 507 583 37,000  Level Oakland Center
Tue 04:28:22 PM 35.9622 -120.3850 134° Southeast 511 588 37,000  Level Oakland Center
Tue 04:29:24 PM 35.8656 -120.2589 133° Southeast 507 583 37,000  Level Oakland Center
Tue 04:30:25 PM 35.7686 -120.1342 134° Southeast 503 579 37,000  Level Oakland Center
Tue 04:31:26 PM 35.6708 -120.0092 134° Southeast 502 578 37,000  Level Oakland Center
Tue 04:32:27 PM 35.5633 -119.9050 142° Southeast 495 570 37,000  Level Oakland Center
Tue 04:33:29 PM 35.4519 -119.8094 145° Southeast 485 558 37,000  Level Oakland Center
Tue 04:34:30 PM 35.3417 -119.7136 145° Southeast 484 557 37,000  Level Oakland Center
Tue 04:35:31 PM 35.2300 -119.6181 145° Southeast 486 559 37,000 -634 Level Oakland Center
Tue 04:36:33 PM 35.1194 -119.5236 145° Southeast 485 558 35,700 -1,951 Descending Oakland Center
Tue 04:37:34 PM 35.0081 -119.4281 145° Southeast 486 559 33,000 -2,803 Descending Oakland Center
Tue 04:38:35 PM 34.8933 -119.3303 145° Southeast 495 570 30,000 -2,754 Descending Oakland Center
Tue 04:39:36 PM 34.7594 -119.2197 146° Southeast 491 565 27,400 -2,683 Descending Oakland Center
Tue 04:40:38 PM 34.6522 -119.1297 145° Southeast 481 554 24,500 -2,811 Descending Oakland Center
Tue 04:41:59 PM 34.5211 -119.0186 145° Southeast 440 506 20,700 -2,727 Descending Los Angeles Center
Tue 04:43:01 PM 34.4244 -118.9392 146° Southeast 418 481 18,000 -2,371 Descending Los Angeles Center
Tue 04:44:03 PM 34.3497 -118.8806 147° Southeast 402 463 15,800 -2,710 Descending Los Angeles Center
Tue 04:45:05 PM 34.2061 -118.8258 163° South 385 443 12,400 -2,448 Descending Los Angeles Center
Tue 04:46:08 PM 34.1103 -118.7906 163° South 365 420 10,700 -1,152 Descending Los Angeles Center
Tue 04:47:10 PM 34.0356 -118.7225 143° Southeast 335 386 10,000 -484 Descending Los Angeles Center
Tue 04:48:12 PM 34.0261 -118.6197 96° East 308 354 9,700 -1,016 Descending Los Angeles Center
Tue 04:49:14 PM 34.0161 -118.5183 97° East 306 352 7,900 -1,500 Descending Los Angeles Center
Tue 04:50:16 PM 34.0136 -118.4297 92° East 286 329 6,600 -1,161 Descending Los Angeles Center
Tue 04:51:18 PM 34.0208 -118.3428 84° East 254 292 5,500 -1,355 Descending Los Angeles Center
Tue 04:52:20 PM 34.0264 -118.2494 86° East 227 261 3,800 -1,597 Descending Los Angeles Center
Tue 04:53:22 PM 33.9858 -118.2636 196° South 178 205 2,200 -768 Descending Los Angeles Center
Tue 04:54:25 PM 33.9625 -118.3069 237° Southwest 161 185 2,200 -576 Level Los Angeles Center
Tue 04:55:27 PM 33.9575 -118.3525 262° West 139 160 1,000 -919 Descending Los Angeles Center
Tue 04:56:29 PM 33.9533 -118.3947 263° West 129 148 300 -677 Descending Los Angeles Center
Tue 04:58:00 PM 33.9333 -118.4000 228° Southwest  Level FlightAware Approximate
Tue 05:05:00 PM 33.9425 -118.4081 228° Southwest  Level Estimated

Login

Don't have an account? Register now (free) for customized features, flight alerts, and more!